Time;durP1;ratioP1;P1;durP2;ratioP2;P2;SDS_P1;SDS_P2;PMS_P1;PMS_P2;Temp;Humidity;BMP_temperature;BMP_pressure;BME280_temperature;BME280_humidity;BME280_pressure;Samples;Min_cycle;Max_cycle;Signal;HPM_P1;HPM_P2
2023/12/23 00:01:55;;;;;;;0.45;0.45;;;2.50;99.90;;;;;;6284172;22;20178;-81
2023/12/23 00:04:22;;;;;;;0.73;0.73;;;2.50;99.90;;;;;;6283490;22;20183;-80
2023/12/23 00:06:49;;;;;;;0.50;0.50;;;2.20;99.90;;;;;;6284149;22;20214;-86
2023/12/23 00:09:16;;;;;;;0.50;0.50;;;2.00;99.90;;;;;;6283959;22;20170;-81
2023/12/23 00:11:43;;;;;;;0.60;0.60;;;1.90;99.90;;;;;;6284259;22;20404;-82
2023/12/23 00:14:10;;;;;;;0.85;0.85;;;2.00;99.90;;;;;;6286003;22;20177;-83
2023/12/23 00:16:38;;;;;;;0.60;0.60;;;2.00;99.90;;;;;;6283512;22;20531;-81
2023/12/23 00:19:05;;;;;;;0.50;0.50;;;2.00;99.90;;;;;;6285015;22;20185;-81
2023/12/23 00:21:39;;;;;;;0.50;0.50;;;1.80;99.90;;;;;;6283850;22;20163;-78
2023/12/23 00:24:07;;;;;;;0.50;0.50;;;1.90;99.90;;;;;;6282637;22;20167;-88
2023/12/23 00:26:39;;;;;;;0.65;0.65;;;1.80;99.90;;;;;;6284227;22;20471;-82
2023/12/23 00:29:12;;;;;;;0.40;0.40;;;1.70;99.90;;;;;;6283409;22;20353;-82
2023/12/23 00:31:40;;;;;;;0.50;0.50;;;1.70;99.90;;;;;;6255793;22;20189;-82
2023/12/23 00:34:07;;;;;;;0.40;0.40;;;1.60;99.90;;;;;;6282479;22;20520;-81
2023/12/23 00:36:34;;;;;;;0.40;0.40;;;1.70;99.90;;;;;;6283342;22;20205;-85
2023/12/23 00:39:03;;;;;;;0.50;0.50;;;1.70;99.90;;;;;;6283696;22;20198;-85
2023/12/23 00:41:32;;;;;;;0.40;0.40;;;1.60;99.90;;;;;;6283693;22;20491;-80
2023/12/23 00:44:03;;;;;;;0.40;0.40;;;1.70;99.90;;;;;;6284371;22;20190;-85
2023/12/23 00:46:31;;;;;;;0.40;0.40;;;1.60;99.90;;;;;;6281906;22;20171;-81
2023/12/23 00:49:00;;;;;;;0.45;0.45;;;1.60;99.90;;;;;;6279990;22;20179;-81
2023/12/23 00:51:27;;;;;;;0.50;0.50;;;1.60;99.90;;;;;;6282300;22;20185;-81
2023/12/23 00:53:54;;;;;;;1.13;1.13;;;1.50;99.90;;;;;;6282025;22;20405;-79
2023/12/23 00:56:22;;;;;;;0.40;0.40;;;1.60;99.90;;;;;;6281328;22;20206;-80
2023/12/23 00:58:49;;;;;;;1.42;0.80;;;1.50;99.90;;;;;;6282800;22;20375;-80
2023/12/23 01:01:17;;;;;;;0.40;0.40;;;1.40;99.90;;;;;;6283213;22;20171;-84
2023/12/23 01:03:48;;;;;;;0.40;0.40;;;1.40;99.90;;;;;;6283537;22;20167;-79
2023/12/23 01:06:17;;;;;;;0.40;0.40;;;1.20;99.90;;;;;;6281651;22;20175;-79
2023/12/23 01:08:44;;;;;;;0.80;0.80;;;1.10;99.90;;;;;;6282316;22;20225;-80
2023/12/23 01:11:11;;;;;;;0.40;0.40;;;1.20;99.90;;;;;;6283561;22;20202;-83
2023/12/23 01:13:38;;;;;;;0.40;0.40;;;1.20;99.90;;;;;;6288397;22;20175;-80
2023/12/23 01:16:06;;;;;;;0.40;0.40;;;1.20;99.90;;;;;;6269598;22;20206;-83
2023/12/23 01:18:35;;;;;;;0.40;0.40;;;1.10;99.90;;;;;;6294838;22;20189;-80
2023/12/23 01:21:04;;;;;;;1.05;0.70;;;1.10;99.90;;;;;;6263284;22;20235;-80
2023/12/23 01:23:31;;;;;;;0.60;0.60;;;1.10;99.90;;;;;;6259370;22;20238;-80
2023/12/23 01:25:58;;;;;;;0.40;0.40;;;1.00;99.90;;;;;;6262101;22;20179;-81
2023/12/23 01:28:26;;;;;;;0.40;0.40;;;1.00;99.90;;;;;;6286335;22;20196;-81
2023/12/23 01:30:53;;;;;;;0.40;0.40;;;0.90;99.90;;;;;;6281935;22;20217;-82
2023/12/23 01:33:23;;;;;;;0.40;0.40;;;0.90;99.90;;;;;;6283315;22;20163;-84
2023/12/23 01:35:52;;;;;;;0.40;0.40;;;0.90;99.90;;;;;;6256738;22;20199;-81
2023/12/23 01:38:20;;;;;;;0.40;0.40;;;0.80;99.90;;;;;;6259141;22;20167;-88
2023/12/23 01:40:47;;;;;;;0.40;0.40;;;0.80;99.90;;;;;;6286730;22;20225;-87
2023/12/23 01:43:15;;;;;;;0.40;0.40;;;0.80;99.90;;;;;;6289019;22;20431;-83
2023/12/23 01:45:48;;;;;;;0.40;0.40;;;0.80;99.90;;;;;;6283032;22;20214;-84
2023/12/23 01:48:22;;;;;;;0.40;0.40;;;0.80;99.90;;;;;;6281470;22;20206;-81
2023/12/23 01:50:54;;;;;;;0.50;0.50;;;0.80;99.90;;;;;;6281514;22;20523;-80
2023/12/23 01:53:21;;;;;;;0.50;0.50;;;0.80;99.90;;;;;;6293739;22;20186;-85
2023/12/23 01:55:51;;;;;;;0.50;0.50;;;0.70;99.90;;;;;;6293531;22;20195;-83
2023/12/23 01:58:25;;;;;;;0.40;0.40;;;0.80;99.90;;;;;;6258601;22;20181;-84
2023/12/23 02:00:54;;;;;;;0.40;0.40;;;0.80;99.90;;;;;;6283060;22;20199;-80
2023/12/23 02:03:21;;;;;;;0.40;0.40;;;0.90;99.90;;;;;;6283396;22;20207;-87
2023/12/23 02:05:48;;;;;;;0.50;0.50;;;0.90;99.90;;;;;;6283683;22;20183;-87
2023/12/23 02:08:16;;;;;;;0.40;0.40;;;0.90;99.90;;;;;;6283885;22;20206;-80
2023/12/23 02:10:43;;;;;;;0.40;0.40;;;0.90;99.90;;;;;;6285062;22;20183;-86
2023/12/23 02:13:27;;;;;;;0.40;0.40;;;1.00;99.90;;;;;;6286311;22;20250;-82
2023/12/23 02:15:59;;;;;;;0.50;0.50;;;1.00;99.90;;;;;;6259197;22;20348;-83
2023/12/23 02:18:26;;;;;;;0.40;0.40;;;1.00;99.90;;;;;;6285824;22;20186;-87
2023/12/23 02:20:54;;;;;;;0.40;0.40;;;1.00;99.90;;;;;;6285746;22;20171;-84
2023/12/23 02:23:24;;;;;;;0.50;0.50;;;1.00;99.90;;;;;;6284966;22;20206;-82
2023/12/23 02:25:58;;;;;;;0.50;0.50;;;1.10;99.90;;;;;;6286840;22;20175;-87
2023/12/23 02:28:25;;;;;;;0.50;0.50;;;1.10;99.90;;;;;;6287171;22;20412;-83
2023/12/23 02:30:53;;;;;;;0.40;0.40;;;1.00;99.90;;;;;;6259697;22;20175;-81
2023/12/23 02:33:21;;;;;;;0.50;0.50;;;1.00;99.90;;;;;;6288916;22;20175;-85
2023/12/23 02:35:52;;;;;;;0.60;0.60;;;1.10;99.90;;;;;;6291092;22;20203;-84
2023/12/23 02:38:21;;;;;;;0.40;0.40;;;1.10;99.90;;;;;;6264058;22;20155;-85
2023/12/23 02:40:50;;;;;;;0.50;0.50;;;1.00;99.90;;;;;;6286038;22;20179;-85
2023/12/23 02:43:17;;;;;;;0.40;0.40;;;1.00;99.90;;;;;;6287065;22;20207;-87
2023/12/23 02:45:44;;;;;;;0.50;0.50;;;1.20;99.90;;;;;;6257826;22;20227;-79
2023/12/23 02:48:13;;;;;;;0.50;0.50;;;1.20;99.90;;;;;;6285602;22;20175;-85
2023/12/23 02:50:40;;;;;;;1.52;0.70;;;1.30;99.90;;;;;;6258948;22;20179;-80
2023/12/23 02:53:08;;;;;;;0.60;0.60;;;1.20;99.90;;;;;;6286620;22;20171;-84
2023/12/23 02:55:36;;;;;;;0.50;0.50;;;1.20;99.90;;;;;;6289520;22;20245;-83
2023/12/23 02:58:13;;;;;;;0.40;0.40;;;1.20;99.90;;;;;;6263918;22;20163;-80
2023/12/23 03:00:40;;;;;;;0.50;0.50;;;1.20;99.90;;;;;;6288745;22;20173;-88
2023/12/23 03:03:10;;;;;;;0.50;0.50;;;1.20;99.90;;;;;;6285518;22;20234;-84
2023/12/23 03:05:46;;;;;;;0.40;0.40;;;1.30;99.90;;;;;;6284218;22;20197;-85
2023/12/23 03:08:16;;;;;;;0.55;0.55;;;1.20;99.90;;;;;;6281788;22;20183;-81
2023/12/23 03:10:42;;;;;;;2.25;2.15;;;1.20;99.90;;;;;;6255390;22;20216;-84
2023/12/23 03:13:12;;;;;;;0.63;0.63;;;1.10;99.90;;;;;;6282167;22;20180;-80
2023/12/23 03:15:39;;;;;;;0.50;0.50;;;1.10;99.90;;;;;;6254867;22;20195;-86
2023/12/23 03:18:06;;;;;;;0.40;0.40;;;1.00;99.90;;;;;;6283574;22;20198;-81
2023/12/23 03:20:35;;;;;;;0.40;0.40;;;1.00;99.90;;;;;;6282292;22;20179;-82
2023/12/23 03:23:04;;;;;;;0.40;0.40;;;1.10;99.90;;;;;;6282338;22;20189;-84
2023/12/23 03:25:31;;;;;;;0.40;0.40;;;1.10;99.90;;;;;;6283893;22;20214;-83
2023/12/23 03:27:59;;;;;;;0.40;0.40;;;1.20;99.90;;;;;;6283438;22;20186;-83
2023/12/23 03:30:27;;;;;;;0.40;0.40;;;1.20;99.90;;;;;;6283699;22;20238;-80
2023/12/23 03:32:54;;;;;;;0.80;0.80;;;1.20;99.90;;;;;;6283040;22;20175;-86
2023/12/23 03:35:21;;;;;;;0.40;0.40;;;1.40;99.90;;;;;;6285875;22;20176;-79
2023/12/23 03:37:55;;;;;;;0.43;0.43;;;1.10;99.90;;;;;;6283290;22;20237;-81
2023/12/23 03:40:22;;;;;;;0.40;0.40;;;1.10;99.90;;;;;;6284900;22;20193;-87
2023/12/23 03:42:51;;;;;;;0.40;0.40;;;1.20;99.90;;;;;;6283335;22;20191;-82
2023/12/23 03:45:19;;;;;;;0.40;0.40;;;1.10;99.90;;;;;;6282443;22;20538;-81
2023/12/23 03:47:49;;;;;;;0.40;0.40;;;1.10;99.90;;;;;;6281802;22;20217;-82
2023/12/23 03:50:17;;;;;;;1.48;1.40;;;1.10;99.90;;;;;;6281456;22;20226;-82
2023/12/23 03:52:46;;;;;;;0.40;0.40;;;1.00;99.90;;;;;;6282515;22;20178;-79
2023/12/23 03:55:14;;;;;;;0.40;0.40;;;1.10;99.90;;;;;;6255716;22;20213;-81
2023/12/23 03:57:43;;;;;;;0.50;0.50;;;1.00;99.90;;;;;;6256283;22;20533;-82
2023/12/23 04:00:11;;;;;;;0.40;0.40;;;1.00;99.90;;;;;;6284625;22;20186;-83
2023/12/23 04:02:38;;;;;;;0.40;0.40;;;1.00;99.90;;;;;;6290547;22;20171;-83
2023/12/23 04:05:05;;;;;;;0.40;0.40;;;1.00;99.90;;;;;;6295530;22;20198;-85
2023/12/23 04:07:32;;;;;;;0.40;0.40;;;1.00;99.90;;;;;;6293290;22;20174;-82
2023/12/23 04:09:59;;;;;;;0.40;0.40;;;1.00;99.90;;;;;;6286538;22;20175;-83
2023/12/23 04:12:26;;;;;;;0.40;0.40;;;1.10;99.90;;;;;;6257835;22;20189;-82
2023/12/23 04:14:54;;;;;;;0.40;0.40;;;1.10;99.90;;;;;;6281103;22;20181;-81
2023/12/23 04:17:21;;;;;;;1.02;0.75;;;1.10;99.90;;;;;;6257696;22;20261;-81
2023/12/23 04:19:50;;;;;;;0.40;0.40;;;1.00;99.90;;;;;;6282257;22;20193;-84
2023/12/23 04:22:17;;;;;;;0.40;0.40;;;1.10;99.90;;;;;;6282256;22;20202;-83
2023/12/23 04:24:44;;;;;;;0.40;0.40;;;1.10;99.90;;;;;;6284394;22;20174;-84
2023/12/23 04:27:11;;;;;;;0.40;0.40;;;1.10;99.90;;;;;;6282162;22;20190;-81
2023/12/23 04:29:38;;;;;;;0.40;0.40;;;1.10;99.90;;;;;;6281587;22;20175;-81
2023/12/23 04:32:06;;;;;;;0.50;0.50;;;1.00;99.90;;;;;;6257916;22;20218;-85
2023/12/23 04:34:33;;;;;;;0.50;0.50;;;0.90;99.90;;;;;;6285214;22;20182;-81
2023/12/23 04:37:00;;;;;;;0.50;0.50;;;0.90;99.90;;;;;;6284878;22;20248;-81
2023/12/23 04:39:27;;;;;;;0.40;0.40;;;0.90;99.90;;;;;;6286172;22;20209;-80
2023/12/23 04:41:55;;;;;;;0.40;0.40;;;0.80;99.90;;;;;;6261287;22;20183;-83
2023/12/23 04:44:24;;;;;;;0.50;0.50;;;0.70;99.90;;;;;;6259584;22;20175;-84
2023/12/23 04:46:53;;;;;;;0.50;0.50;;;0.70;99.90;;;;;;6284692;22;20197;-84
2023/12/23 04:49:20;;;;;;;0.50;0.50;;;0.60;99.90;;;;;;6284176;22;20171;-82
2023/12/23 04:51:47;;;;;;;0.40;0.40;;;0.70;99.90;;;;;;6283554;22;20179;-83
2023/12/23 04:54:17;;;;;;;0.40;0.40;;;0.70;99.90;;;;;;6256675;22;20189;-79
2023/12/23 04:56:48;;;;;;;0.40;0.40;;;0.70;99.90;;;;;;6284216;22;20237;-83
2023/12/23 04:59:22;;;;;;;0.50;0.50;;;0.60;99.90;;;;;;6283382;22;20200;-87
2023/12/23 05:01:50;;;;;;;0.40;0.40;;;0.60;99.90;;;;;;6283951;22;20233;-84
2023/12/23 05:04:17;;;;;;;0.50;0.50;;;0.60;99.90;;;;;;6257558;22;20194;-83
2023/12/23 05:06:44;;;;;;;0.50;0.50;;;0.60;99.90;;;;;;6257958;22;20193;-84
2023/12/23 05:09:14;;;;;;;0.50;0.50;;;0.60;99.90;;;;;;6257625;22;20198;-83
2023/12/23 05:11:43;;;;;;;0.50;0.50;;;0.60;99.90;;;;;;6261083;22;20205;-85
2023/12/23 05:14:11;;;;;;;0.40;0.40;;;0.60;99.90;;;;;;6287254;22;20547;-84
2023/12/23 05:16:39;;;;;;;0.50;0.50;;;0.60;99.90;;;;;;6287980;22;20218;-84
2023/12/23 05:19:06;;;;;;;2.45;1.17;;;0.60;99.90;;;;;;6281944;22;20241;-78
2023/12/23 05:21:33;;;;;;;0.50;0.50;;;0.80;99.90;;;;;;6282199;22;20179;-81
2023/12/23 05:24:01;;;;;;;0.50;0.50;;;0.70;99.90;;;;;;6252986;22;20179;-87
2023/12/23 05:26:27;;;;;;;0.50;0.50;;;0.90;99.90;;;;;;6280484;22;20206;-86
2023/12/23 05:28:56;;;;;;;2.80;1.52;;;0.90;99.90;;;;;;6257506;22;20179;-81
2023/12/23 05:31:23;;;;;;;0.40;0.40;;;0.80;99.90;;;;;;6285858;22;20468;-83
2023/12/23 05:33:55;;;;;;;0.50;0.50;;;0.80;99.90;;;;;;6284850;22;20568;-79
2023/12/23 05:36:23;;;;;;;0.60;0.60;;;0.60;99.90;;;;;;6281650;22;20197;-81
2023/12/23 05:38:50;;;;;;;1.45;1.35;;;0.50;99.90;;;;;;6281672;22;20171;-83
2023/12/23 05:41:17;;;;;;;0.40;0.40;;;0.50;99.90;;;;;;6283795;22;20167;-81
2023/12/23 05:43:44;;;;;;;0.52;0.52;;;0.50;99.90;;;;;;6290992;22;20179;-84
2023/12/23 05:46:14;;;;;;;0.68;0.68;;;0.50;99.90;;;;;;6293181;22;20183;-78
2023/12/23 05:48:41;;;;;;;1.30;1.20;;;0.60;99.90;;;;;;6290900;22;20191;-83
2023/12/23 05:51:12;;;;;;;0.68;0.68;;;0.60;99.90;;;;;;6287530;22;20210;-78
2023/12/23 05:53:40;;;;;;;0.40;0.40;;;0.60;99.90;;;;;;6257272;22;20234;-77
2023/12/23 05:56:09;;;;;;;0.40;0.40;;;0.60;99.90;;;;;;6282583;22;20618;-82
2023/12/23 05:58:36;;;;;;;0.40;0.40;;;0.60;99.90;;;;;;6283445;22;20213;-82
2023/12/23 06:01:05;;;;;;;0.40;0.40;;;0.60;99.90;;;;;;6256419;22;20671;-85
2023/12/23 06:03:32;;;;;;;0.50;0.50;;;0.60;99.90;;;;;;6290521;22;20175;-84
2023/12/23 06:05:59;;;;;;;0.40;0.40;;;0.60;99.90;;;;;;6291674;22;20190;-81
2023/12/23 06:08:27;;;;;;;0.40;0.40;;;0.70;99.90;;;;;;6295281;22;20185;-80
2023/12/23 06:10:55;;;;;;;0.50;0.50;;;0.50;99.90;;;;;;6297693;22;20538;-81
2023/12/23 06:13:25;;;;;;;0.50;0.50;;;0.40;99.90;;;;;;6299538;22;20179;-82
2023/12/23 06:15:52;;;;;;;0.40;0.40;;;0.50;99.90;;;;;;6301297;22;20167;-80
2023/12/23 06:18:19;;;;;;;0.50;0.50;;;0.40;99.90;;;;;;6301494;22;20197;-81
2023/12/23 06:20:47;;;;;;;0.57;0.57;;;0.40;99.90;;;;;;6275548;22;20179;-81
2023/12/23 06:23:17;;;;;;;0.40;0.40;;;0.40;99.90;;;;;;6302438;22;20178;-81
2023/12/23 06:25:44;;;;;;;8.68;1.02;;;0.30;99.90;;;;;;6300520;22;20441;-82
2023/12/23 06:28:12;;;;;;;0.50;0.50;;;0.30;99.90;;;;;;6303882;22;20185;-85
2023/12/23 06:30:39;;;;;;;0.85;0.85;;;0.40;99.90;;;;;;6301435;22;20181;-84
2023/12/23 06:33:06;;;;;;;0.40;0.40;;;0.30;99.90;;;;;;6275776;22;20189;-79
2023/12/23 06:35:37;;;;;;;0.40;0.40;;;0.20;99.90;;;;;;6276454;22;20175;-78
2023/12/23 06:38:05;;;;;;;0.50;0.50;;;0.30;99.90;;;;;;6301997;22;20195;-82
2023/12/23 06:40:32;;;;;;;0.50;0.50;;;0.20;99.90;;;;;;6302449;22;20171;-82
2023/12/23 06:43:00;;;;;;;0.40;0.40;;;0.30;99.90;;;;;;6300544;22;20171;-80
2023/12/23 06:45:47;;;;;;;0.50;0.50;;;0.20;99.90;;;;;;6301338;22;20175;-81
2023/12/23 06:48:14;;;;;;;0.80;0.80;;;0.10;99.90;;;;;;6301150;22;20173;-78
2023/12/23 06:50:42;;;;;;;0.50;0.50;;;0.00;99.90;;;;;;6298018;22;20237;-80
2023/12/23 06:53:17;;;;;;;0.50;0.50;;;0.00;99.90;;;;;;6297932;22;20166;-83
2023/12/23 06:55:47;;;;;;;0.50;0.50;;;0.00;99.90;;;;;;6293631;22;20167;-86
2023/12/23 06:58:14;;;;;;;0.43;0.43;;;0.00;99.90;;;;;;6291259;22;20257;-83
2023/12/23 07:00:41;;;;;;;0.60;0.60;;;0.20;99.90;;;;;;6290248;22;20175;-85
2023/12/23 07:03:08;;;;;;;0.40;0.40;;;0.20;99.90;;;;;;6287940;22;20179;-81
2023/12/23 07:05:37;;;;;;;0.40;0.40;;;0.20;99.90;;;;;;6288028;22;20223;-86
2023/12/23 07:08:06;;;;;;;0.50;0.50;;;0.30;99.90;;;;;;6261089;22;20233;-86
2023/12/23 07:10:33;;;;;;;0.50;0.50;;;0.40;99.90;;;;;;6259640;22;20183;-81
2023/12/23 07:13:03;;;;;;;0.40;0.40;;;0.50;99.90;;;;;;6262552;22;20183;-82
2023/12/23 07:15:29;;;;;;;0.47;0.47;;;0.50;99.90;;;;;;6261937;22;20205;-82
2023/12/23 07:17:56;;;;;;;0.50;0.50;;;0.50;99.90;;;;;;6291810;22;20198;-80
2023/12/23 07:20:25;;;;;;;0.50;0.50;;;0.50;99.90;;;;;;6298769;22;20196;-82
2023/12/23 07:22:52;;;;;;;5.38;2.25;;;0.60;99.90;;;;;;6289692;22;20168;-82
2023/12/23 07:25:21;;;;;;;0.40;0.40;;;0.60;99.90;;;;;;6260831;22;20179;-83
2023/12/23 07:27:49;;;;;;;0.50;0.50;;;0.60;99.90;;;;;;6261454;22;20203;-82
2023/12/23 07:30:17;;;;;;;0.50;0.50;;;0.80;99.90;;;;;;6296105;22;20169;-81
2023/12/23 07:32:47;;;;;;;0.50;0.50;;;0.70;99.90;;;;;;6300432;22;20175;-78
2023/12/23 07:35:16;;;;;;;0.57;0.57;;;0.80;99.90;;;;;;6302419;22;20206;-78
2023/12/23 07:37:48;;;;;;;0.50;0.50;;;0.80;99.90;;;;;;6277164;22;20183;-79
2023/12/23 07:40:16;;;;;;;4.53;1.83;;;0.80;99.90;;;;;;6274125;22;20159;-80
2023/12/23 07:42:45;;;;;;;0.50;0.50;;;0.90;99.90;;;;;;6301206;22;20209;-82
2023/12/23 07:45:14;;;;;;;0.50;0.50;;;1.00;99.90;;;;;;6298177;22;20187;-80
2023/12/23 07:47:43;;;;;;;1.02;0.98;;;1.00;99.90;;;;;;6269291;22;20210;-79
2023/12/23 07:50:12;;;;;;;0.90;0.90;;;1.00;99.90;;;;;;6291385;22;20216;-80
2023/12/23 07:52:39;;;;;;;0.40;0.40;;;1.00;99.90;;;;;;6283185;22;20183;-80
2023/12/23 07:55:15;;;;;;;0.65;0.65;;;0.90;99.90;;;;;;6285472;22;20187;-83
2023/12/23 07:57:45;;;;;;;0.63;0.63;;;1.00;99.90;;;;;;6283236;22;20226;-78
2023/12/23 08:00:18;;;;;;;0.50;0.50;;;1.10;99.90;;;;;;6257264;22;20170;-79
2023/12/23 08:02:44;;;;;;;0.88;0.88;;;1.20;99.90;;;;;;6231893;22;20182;-81
2023/12/23 08:05:12;;;;;;;0.40;0.40;;;1.20;99.90;;;;;;6282329;22;20167;-78
2023/12/23 08:07:44;;;;;;;0.40;0.40;;;1.30;99.90;;;;;;6281802;22;20768;-82
2023/12/23 08:10:12;;;;;;;0.50;0.50;;;1.30;99.90;;;;;;6285274;22;20183;-87
2023/12/23 08:12:39;;;;;;;0.50;0.50;;;1.20;99.90;;;;;;6285790;22;20179;-78
2023/12/23 08:15:09;;;;;;;0.50;0.50;;;1.30;99.90;;;;;;6285952;22;20206;-80
2023/12/23 08:17:44;;;;;;;0.50;0.50;;;1.30;99.90;;;;;;6281660;22;20573;-86
2023/12/23 08:20:11;;;;;;;0.50;0.50;;;1.40;99.90;;;;;;6279768;22;20167;-80
2023/12/23 08:22:43;;;;;;;1.23;1.13;;;1.40;99.90;;;;;;6255215;22;20186;-81
2023/12/23 08:25:16;;;;;;;0.85;0.85;;;1.40;99.90;;;;;;6256381;22;20226;-78
2023/12/23 08:27:45;;;;;;;1.35;1.35;;;1.30;99.90;;;;;;6255082;22;20669;-82
2023/12/23 08:30:15;;;;;;;1.52;1.25;;;1.30;99.90;;;;;;6257445;22;20171;-79
2023/12/23 08:32:43;;;;;;;0.43;0.43;;;1.40;99.90;;;;;;6257391;22;20501;-79
2023/12/23 08:35:10;;;;;;;0.50;0.50;;;1.40;99.90;;;;;;6283455;22;20183;-80
2023/12/23 08:37:41;;;;;;;0.90;0.82;;;1.40;99.90;;;;;;6281929;22;20224;-79
2023/12/23 08:40:10;;;;;;;0.40;0.40;;;1.40;99.90;;;;;;6282380;22;20179;-79
2023/12/23 08:42:37;;;;;;;0.45;0.45;;;1.50;99.90;;;;;;6284060;22;20182;-80
2023/12/23 08:45:05;;;;;;;7.82;2.58;;;1.40;99.90;;;;;;6259932;22;20214;-83
2023/12/23 08:47:32;;;;;;;0.40;0.40;;;1.50;99.90;;;;;;6292043;22;20178;-84
2023/12/23 08:50:08;;;;;;;0.70;0.70;;;1.50;99.90;;;;;;6271283;22;20251;-79
2023/12/23 08:52:36;;;;;;;2.38;2.17;;;1.50;99.90;;;;;;6269157;22;20190;-80
2023/12/23 08:55:03;;;;;;;0.40;0.40;;;1.70;99.90;;;;;;6287966;22;20178;-79
2023/12/23 08:57:30;;;;;;;0.40;0.40;;;1.70;99.90;;;;;;6255142;22;20324;-80
2023/12/23 08:59:57;;;;;;;1.40;1.30;;;1.70;99.90;;;;;;6296470;22;20185;-81
2023/12/23 09:02:27;;;;;;;0.50;0.50;;;1.70;99.90;;;;;;6302955;22;20178;-84
2023/12/23 09:04:59;;;;;;;3.70;3.42;;;1.60;99.90;;;;;;6302380;22;20182;-79
2023/12/23 09:07:28;;;;;;;1.02;0.93;;;1.70;99.90;;;;;;6288056;22;20174;-83
2023/12/23 09:09:58;;;;;;;0.90;0.90;;;1.80;99.90;;;;;;6286897;22;20170;-80
2023/12/23 09:12:27;;;;;;;0.57;0.57;;;1.90;99.90;;;;;;6259187;22;20232;-81
2023/12/23 09:14:57;;;;;;;0.40;0.40;;;1.90;99.90;;;;;;6257816;22;20197;-81
2023/12/23 09:17:24;;;;;;;0.40;0.40;;;2.00;99.90;;;;;;6257463;22;20278;-87
2023/12/23 09:19:55;;;;;;;1.95;1.63;;;2.00;99.90;;;;;;6231722;22;20178;-84
2023/12/23 09:22:22;;;;;;;0.40;0.40;;;2.10;99.90;;;;;;6284875;22;20225;-83
2023/12/23 09:24:52;;;;;;;0.70;0.70;;;2.20;99.90;;;;;;6257854;22;20170;-84
2023/12/23 09:27:20;;;;;;;0.50;0.50;;;2.20;99.90;;;;;;6289436;22;20159;-84
2023/12/23 09:29:48;;;;;;;0.50;0.50;;;2.20;99.90;;;;;;6284905;22;20182;-84
2023/12/23 09:32:19;;;;;;;0.50;0.50;;;2.20;99.90;;;;;;6257858;22;20171;-81
2023/12/23 09:34:47;;;;;;;0.60;0.60;;;2.20;99.90;;;;;;6256419;22;20205;-85
2023/12/23 09:37:15;;;;;;;1.58;1.30;;;2.30;99.90;;;;;;6290984;22;20272;-83
2023/12/23 09:39:46;;;;;;;0.50;0.50;;;2.30;99.90;;;;;;6271806;22;20432;-84
2023/12/23 09:42:13;;;;;;;4.20;3.00;;;2.30;99.90;;;;;;6293812;22;20460;-83
2023/12/23 09:44:41;;;;;;;0.50;0.50;;;2.40;99.90;;;;;;6258844;22;20179;-85
2023/12/23 09:47:08;;;;;;;0.50;0.50;;;2.40;99.90;;;;;;6256082;22;20178;-82
2023/12/23 09:49:36;;;;;;;0.50;0.50;;;2.40;99.90;;;;;;6284644;22;20398;-84
2023/12/23 09:52:07;;;;;;;0.50;0.50;;;2.30;99.90;;;;;;6259180;22;20222;-84
2023/12/23 09:54:41;;;;;;;0.47;0.47;;;2.40;99.90;;;;;;6284192;22;20198;-85
2023/12/23 09:57:10;;;;;;;0.50;0.50;;;2.40;99.90;;;;;;6285967;22;20207;-85
2023/12/23 09:59:42;;;;;;;0.60;0.60;;;2.40;99.90;;;;;;6288000;22;20163;-81
2023/12/23 10:02:10;;;;;;;0.52;0.52;;;2.30;99.90;;;;;;6260958;22;20550;-82
2023/12/23 10:04:41;;;;;;;0.45;0.45;;;2.30;99.90;;;;;;6285750;22;20167;-84
2023/12/23 10:07:11;;;;;;;2.35;2.25;;;2.40;99.90;;;;;;6283452;22;20194;-82
2023/12/23 10:09:38;;;;;;;0.73;0.73;;;2.40;99.90;;;;;;6287145;22;20630;-83
2023/12/23 10:12:06;;;;;;;0.50;0.50;;;2.30;99.90;;;;;;6256814;22;20222;-87
2023/12/23 10:14:35;;;;;;;3.28;1.48;;;2.40;99.90;;;;;;6288109;22;20167;-87
2023/12/23 10:17:02;;;;;;;0.73;0.73;;;2.40;99.90;;;;;;6291756;22;20186;-83
2023/12/23 10:19:31;;;;;;;0.40;0.40;;;2.40;99.90;;;;;;6297920;22;20183;-82
2023/12/23 10:25:23;;;;;;;0.65;0.65;;;2.40;99.90;;;;;;6291303;22;20213;-82
2023/12/23 10:27:57;;;;;;;0.40;0.40;;;2.30;99.90;;;;;;6293587;22;20177;-89
2023/12/23 10:30:28;;;;;;;0.50;0.50;;;2.40;99.90;;;;;;6266826;22;20174;-81
2023/12/23 10:33:04;;;;;;;0.50;0.50;;;2.40;99.90;;;;;;6291752;22;20178;-82
2023/12/23 10:36:01;;;;;;;0.43;0.43;;;2.30;99.90;;;;;;6295589;22;20170;-89
2023/12/23 10:38:42;;;;;;;0.50;0.50;;;2.30;99.90;;;;;;6297507;22;20182;-86
2023/12/23 10:41:26;;;;;;;0.82;0.82;;;2.20;99.90;;;;;;6270590;22;20197;-87
2023/12/23 10:44:00;;;;;;;5.40;0.95;;;2.20;99.90;;;;;;6297228;22;20215;-85
2023/12/23 10:46:30;;;;;;;0.50;0.50;;;2.40;99.90;;;;;;6295424;22;20566;-81
2023/12/23 10:48:57;;;;;;;0.40;0.40;;;2.20;99.90;;;;;;6292693;22;20187;-88
2023/12/23 10:51:28;;;;;;;0.50;0.50;;;2.20;99.90;;;;;;6291728;22;20171;-88
2023/12/23 10:53:58;;;;;;;1.02;1.02;;;2.10;99.90;;;;;;6263481;22;20183;-80
2023/12/23 10:56:29;;;;;;;0.70;0.70;;;2.10;99.90;;;;;;6263460;22;20202;-87
2023/12/23 10:58:58;;;;;;;0.75;0.75;;;2.10;99.90;;;;;;6290175;22;20233;-86
2023/12/23 11:01:40;;;;;;;0.60;0.60;;;2.10;99.90;;;;;;6241925;22;20159;-84
2023/12/23 11:04:12;;;;;;;0.60;0.60;;;2.00;99.90;;;;;;6263820;22;20178;-91
2023/12/23 11:06:52;;;;;;;0.50;0.50;;;2.00;99.90;;;;;;6264640;22;20182;-87
2023/12/23 11:09:24;;;;;;;0.50;0.50;;;2.10;99.90;;;;;;6288472;22;20238;-85
2023/12/23 11:11:52;;;;;;;0.80;0.80;;;2.00;99.90;;;;;;6288845;22;20190;-87
2023/12/23 11:14:24;;;;;;;2.50;1.95;;;2.00;99.90;;;;;;6288810;22;20181;-85
2023/12/23 11:16:56;;;;;;;0.93;0.93;;;2.00;99.90;;;;;;6263370;22;20156;-85
2023/12/23 11:19:29;;;;;;;0.88;0.88;;;1.50;99.90;;;;;;6260609;22;20592;-87
2023/12/23 11:22:23;;;;;;;0.70;0.70;;;2.00;99.90;;;;;;6287907;22;20167;-85
2023/12/23 11:24:54;;;;;;;0.40;0.40;;;2.00;99.90;;;;;;6262536;22;20176;-85
2023/12/23 11:27:35;;;;;;;0.50;0.50;;;2.70;99.90;;;;;;6288536;22;20174;-87
2023/12/23 11:30:10;;;;;;;0.45;0.45;;;1.80;99.90;;;;;;6292439;22;20151;-89
2023/12/23 11:32:43;;;;;;;0.50;0.50;;;1.70;99.90;;;;;;6294499;22;20187;-84
2023/12/23 11:35:12;;;;;;;0.93;0.85;;;1.70;99.90;;;;;;6291809;22;20174;-86
2023/12/23 11:37:57;;;;;;;0.50;0.50;;;1.70;99.90;;;;;;6285693;22;20367;-85
2023/12/23 11:40:30;;;;;;;1.17;1.17;;;1.60;99.90;;;;;;6285718;22;20208;-82
2023/12/23 11:42:58;;;;;;;1.80;1.67;;;1.50;99.90;;;;;;6286758;22;20190;-82
2023/12/23 11:45:30;;;;;;;0.70;0.70;;;1.40;99.90;;;;;;6289114;22;20547;-84
2023/12/23 11:47:57;;;;;;;0.60;0.60;;;1.30;99.90;;;;;;6287062;22;20378;-83
2023/12/23 11:50:26;;;;;;;0.52;0.52;;;1.30;99.90;;;;;;6286480;22;20265;-82
2023/12/23 11:52:54;;;;;;;0.70;0.70;;;1.20;99.90;;;;;;6258341;22;20191;-82
2023/12/23 11:55:22;;;;;;;0.40;0.40;;;1.10;99.90;;;;;;6285116;22;20183;-79
2023/12/23 11:57:49;;;;;;;0.63;0.63;;;0.90;99.90;;;;;;6283198;22;20199;-83
2023/12/23 12:00:19;;;;;;;0.60;0.60;;;0.90;99.90;;;;;;6281453;22;20180;-82
2023/12/23 12:02:46;;;;;;;0.50;0.50;;;0.80;99.90;;;;;;6282193;22;20459;-83
2023/12/23 12:05:13;;;;;;;0.60;0.60;;;0.80;99.90;;;;;;6285192;22;20178;-83
2023/12/23 12:07:41;;;;;;;0.93;0.93;;;0.70;99.90;;;;;;6287587;22;20171;-79
2023/12/23 12:10:08;;;;;;;1.25;1.15;;;0.70;99.90;;;;;;6284430;22;20262;-82
2023/12/23 12:12:35;;;;;;;0.50;0.50;;;0.70;99.90;;;;;;6258423;22;20187;-83
2023/12/23 12:15:02;;;;;;;0.50;0.50;;;0.60;99.90;;;;;;6258599;22;20250;-81
2023/12/23 12:17:29;;;;;;;1.60;1.50;;;0.60;99.90;;;;;;6257795;22;20179;-80
2023/12/23 12:19:56;;;;;;;0.52;0.52;;;0.50;99.90;;;;;;6284593;22;20464;-79
2023/12/23 12:22:23;;;;;;;0.63;0.63;;;0.50;99.90;;;;;;6280394;22;20213;-82
2023/12/23 12:24:51;;;;;;;0.50;0.50;;;0.50;99.90;;;;;;6278112;22;20202;-81
2023/12/23 12:27:18;;;;;;;1.30;0.82;;;0.60;99.90;;;;;;6278702;22;20499;-81
2023/12/23 12:29:46;;;;;;;0.85;0.85;;;0.60;99.90;;;;;;6278639;22;20209;-81
2023/12/23 12:32:13;;;;;;;0.82;0.70;;;0.50;99.90;;;;;;6280111;22;20416;-79
2023/12/23 12:34:40;;;;;;;0.50;0.50;;;0.50;99.90;;;;;;6252907;22;20638;-77
2023/12/23 12:37:10;;;;;;;0.40;0.40;;;0.50;99.90;;;;;;6279061;22;20185;-80
2023/12/23 12:39:37;;;;;;;0.60;0.60;;;0.50;99.90;;;;;;6278695;22;20194;-78
2023/12/23 12:42:05;;;;;;;0.85;0.85;;;0.50;99.90;;;;;;6279678;22;20198;-80
2023/12/23 12:44:33;;;;;;;0.80;0.80;;;0.60;99.90;;;;;;6278646;22;20179;-79
2023/12/23 12:47:01;;;;;;;0.50;0.50;;;0.60;99.90;;;;;;6278496;22;20270;-80
2023/12/23 12:49:29;;;;;;;10.55;1.40;;;0.50;99.90;;;;;;6279311;22;20270;-80
2023/12/23 12:51:55;;;;;;;0.60;0.60;;;0.60;99.90;;;;;;6279493;22;20183;-78
2023/12/23 12:54:26;;;;;;;0.40;0.40;;;0.60;99.90;;;;;;6278737;22;20175;-83
2023/12/23 12:56:53;;;;;;;2.50;2.38;;;0.60;99.90;;;;;;6279004;22;20183;-79
2023/12/23 12:59:20;;;;;;;0.63;0.63;;;0.60;99.90;;;;;;6278985;22;20229;-78
2023/12/23 13:01:47;;;;;;;0.55;0.55;;;0.60;99.90;;;;;;6278844;22;20225;-78
2023/12/23 13:04:14;;;;;;;0.40;0.40;;;0.60;99.90;;;;;;6278663;22;20178;-78
2023/12/23 13:06:42;;;;;;;0.40;0.40;;;0.70;99.90;;;;;;6278506;22;20178;-78
2023/12/23 13:09:09;;;;;;;1.25;1.15;;;0.60;99.90;;;;;;6278075;22;20182;-80
2023/12/23 13:11:37;;;;;;;0.75;0.75;;;0.60;99.90;;;;;;6278670;22;20210;-81